Terminal Aerodrome Forecast
Issued by NWS

Home | Current Version | Previous Version | Text Only | Print | Product List | Glossary On
Versions: 1 2 3 4 5 6 7 8 9 10 11 12 13 14 15 16 17 18 19 20 21 22
235
FTUS46 KSEW 111815 AAA
TAFBFI
TAF AMD
KBFI 111815Z 1118/1218 13003KT 6SM BR VCFG FEW001 SCT005
     FM112000 16004KT P6SM SKC
     FM112100 16004KT P6SM SKC
     FM120400 15005KT P6SM BKN200
     FM121100 15003KT P6SM BKN080=

USA.gov is the U.S. government's official web portal to all federal, state and local government web resources and services.